Time;durP1;ratioP1;P1;durP2;ratioP2;P2;SDS_P1;SDS_P2;PMS_P1;PMS_P2;Temp;Humidity;BMP_temperature;BMP_pressure;BME280_temperature;BME280_humidity;BME280_pressure;Samples;Min_cycle;Max_cycle;Signal;HPM_P1;HPM_P2
2023/03/24 00:01:51;;;;;;;1.98;1.10;;;21.00;77.90;;;;;;5066013;28;20219;-51
2023/03/24 00:04:18;;;;;;;1.50;1.10;;;21.00;78.00;;;;;;5059881;28;20199;-55
2023/03/24 00:06:48;;;;;;;1.30;0.90;;;21.00;78.80;;;;;;5064867;28;20195;-51
2023/03/24 00:09:14;;;;;;;1.45;0.95;;;21.00;78.10;;;;;;5064441;28;20204;-53
2023/03/24 00:11:41;;;;;;;3.50;1.15;;;21.00;78.10;;;;;;5065945;28;20656;-49
2023/03/24 00:14:11;;;;;;;1.93;1.03;;;21.00;78.10;;;;;;5065366;28;20224;-51
2023/03/24 00:16:41;;;;;;;2.22;1.00;;;21.00;78.10;;;;;;5064980;28;20460;-52
2023/03/24 00:19:08;;;;;;;1.67;0.90;;;20.90;78.10;;;;;;5067445;28;20606;-51
2023/03/24 00:21:36;;;;;;;1.00;0.80;;;20.90;78.10;;;;;;5066068;28;20211;-49
2023/03/24 00:24:06;;;;;;;1.55;1.15;;;20.90;78.10;;;;;;5063241;28;20634;-53
2023/03/24 00:26:33;;;;;;;1.63;0.95;;;20.90;78.20;;;;;;5064199;28;20199;-58
2023/03/24 00:29:01;;;;;;;2.80;0.98;;;20.90;78.20;;;;;;5065325;28;20612;-50
2023/03/24 00:31:29;;;;;;;1.80;1.10;;;20.90;78.20;;;;;;5062438;28;20672;-49
2023/03/24 00:33:56;;;;;;;1.60;1.00;;;20.90;78.20;;;;;;5055824;28;20223;-52
2023/03/24 00:36:25;;;;;;;1.27;0.90;;;20.90;78.30;;;;;;5059186;28;20281;-50
2023/03/24 00:38:52;;;;;;;3.73;1.20;;;20.90;78.30;;;;;;5058177;28;20213;-50
2023/03/24 00:41:20;;;;;;;1.15;0.82;;;20.90;78.30;;;;;;5057012;28;21110;-49
2023/03/24 00:43:47;;;;;;;2.30;1.10;;;20.90;78.30;;;;;;5063465;28;20285;-51
2023/03/24 00:46:26;;;;;;;2.28;1.15;;;20.90;78.30;;;;;;5062061;28;20666;-51
2023/03/24 00:48:56;;;;;;;1.80;1.35;;;20.80;78.30;;;;;;5060312;28;21069;-54
2023/03/24 00:51:24;;;;;;;1.20;1.00;;;20.80;78.30;;;;;;5062367;28;20230;-49
2023/03/24 00:53:56;;;;;;;1.17;0.85;;;20.80;78.30;;;;;;5060003;28;20219;-51
2023/03/24 00:56:24;;;;;;;1.70;1.25;;;20.80;78.30;;;;;;5062604;28;20191;-51
2023/03/24 00:58:51;;;;;;;1.40;1.23;;;20.80;78.30;;;;;;5066237;28;20203;-51
2023/03/24 01:01:20;;;;;;;1.80;1.25;;;20.80;78.30;;;;;;5064169;28;20194;-48
2023/03/24 01:03:49;;;;;;;1.20;0.93;;;20.80;78.40;;;;;;5061479;28;20464;-48
2023/03/24 01:06:21;;;;;;;3.95;1.63;;;20.80;78.40;;;;;;5054394;28;20223;-53
2023/03/24 01:08:49;;;;;;;1.35;0.80;;;20.80;78.40;;;;;;5051816;28;20647;-48
2023/03/24 01:11:17;;;;;;;3.22;1.23;;;20.80;78.40;;;;;;5047638;28;20777;-50
2023/03/24 01:13:43;;;;;;;3.35;0.95;;;20.80;78.40;;;;;;5050889;28;20226;-54
2023/03/24 01:16:10;;;;;;;1.75;1.23;;;20.70;78.40;;;;;;5051244;28;20207;-49
2023/03/24 01:18:39;;;;;;;1.42;0.90;;;20.70;78.40;;;;;;5049821;28;20199;-55
2023/03/24 01:21:07;;;;;;;1.10;0.93;;;20.70;78.40;;;;;;5052154;28;20756;-49
2023/03/24 01:23:36;;;;;;;1.20;1.00;;;20.70;78.40;;;;;;5048730;28;20195;-55
2023/03/24 01:26:06;;;;;;;1.50;1.00;;;20.70;78.40;;;;;;5047834;28;20199;-49
2023/03/24 01:28:38;;;;;;;1.00;0.90;;;20.70;78.40;;;;;;5053809;28;20190;-54
2023/03/24 01:31:06;;;;;;;1.23;0.90;;;20.70;78.40;;;;;;5053833;28;20207;-52
2023/03/24 01:33:32;;;;;;;1.10;0.82;;;20.70;78.50;;;;;;5054867;28;20225;-52
2023/03/24 01:35:59;;;;;;;1.10;0.82;;;20.70;78.50;;;;;;5050876;28;20196;-50
2023/03/24 01:38:26;;;;;;;1.27;0.98;;;20.60;78.40;;;;;;5049008;28;20655;-48
2023/03/24 01:40:54;;;;;;;1.00;0.80;;;20.60;78.40;;;;;;5058752;28;20211;-51
2023/03/24 01:43:25;;;;;;;1.40;1.10;;;20.60;78.40;;;;;;5059711;28;20218;-50
2023/03/24 01:46:02;;;;;;;2.15;0.95;;;20.60;78.40;;;;;;5064208;28;20601;-49
2023/03/24 01:48:33;;;;;;;1.10;0.85;;;20.60;78.40;;;;;;5059095;28;20199;-51
2023/03/24 01:51:06;;;;;;;2.30;0.98;;;20.60;78.50;;;;;;5059661;28;20199;-55
2023/03/24 01:53:36;;;;;;;1.67;0.90;;;20.60;78.40;;;;;;5056160;28;20195;-50
2023/03/24 01:56:06;;;;;;;1.35;0.80;;;20.60;78.40;;;;;;5058100;28;20571;-50
2023/03/24 01:58:35;;;;;;;1.40;1.00;;;20.60;78.50;;;;;;5056065;28;20666;-57
2023/03/24 02:01:03;;;;;;;1.42;1.10;;;20.60;78.50;;;;;;5059201;28;20202;-54
2023/03/24 02:03:33;;;;;;;1.48;0.85;;;20.60;78.50;;;;;;5052517;28;20199;-53
2023/03/24 02:06:02;;;;;;;2.20;0.90;;;20.60;78.50;;;;;;5048808;28;20289;-53
2023/03/24 02:08:32;;;;;;;1.05;0.80;;;20.60;78.50;;;;;;5048911;28;20326;-51
2023/03/24 02:11:01;;;;;;;3.10;1.10;;;20.60;78.60;;;;;;5049490;28;20194;-51
2023/03/24 02:13:29;;;;;;;1.00;0.80;;;20.60;78.60;;;;;;5050384;28;20278;-49
2023/03/24 02:16:13;;;;;;;1.75;1.27;;;20.50;78.50;;;;;;5046559;28;20302;-52
2023/03/24 02:18:51;;;;;;;1.63;1.15;;;20.50;78.50;;;;;;5048379;28;20194;-52
2023/03/24 02:21:47;;;;;;;1.10;0.80;;;20.50;79.30;;;;;;5047425;28;20195;-54
2023/03/24 02:24:51;;;;;;;1.30;0.98;;;20.50;78.50;;;;;;5047152;28;20776;-52
2023/03/24 02:27:47;;;;;;;1.92;1.30;;;20.50;78.50;;;;;;5017646;28;20639;-52
2023/03/24 02:30:31;;;;;;;1.30;0.98;;;20.50;78.60;;;;;;5051188;28;20191;-53
2023/03/24 02:33:34;;;;;;;1.83;1.05;;;20.50;78.60;;;;;;5053347;28;20682;-55
2023/03/24 02:37:01;;;;;;;1.80;1.10;;;20.50;78.60;;;;;;5051810;28;20200;-48
2023/03/24 02:39:45;;;;;;;1.15;0.80;;;20.50;78.60;;;;;;5054158;28;20203;-55
2023/03/24 02:42:24;;;;;;;2.35;0.90;;;20.50;78.60;;;;;;5060375;28;20558;-52
2023/03/24 02:45:02;;;;;;;1.45;1.35;;;20.50;78.60;;;;;;5060404;28;20960;-52
2023/03/24 02:47:37;;;;;;;1.23;1.00;;;20.40;78.60;;;;;;5062752;28;20199;-53
2023/03/24 02:50:14;;;;;;;2.38;1.00;;;20.40;78.60;;;;;;5057094;28;20203;-50
2023/03/24 02:52:48;;;;;;;2.63;1.00;;;20.40;78.50;;;;;;5062379;28;20199;-51
2023/03/24 02:55:20;;;;;;;1.10;0.80;;;20.40;78.60;;;;;;5065104;28;20676;-53
2023/03/24 02:57:52;;;;;;;1.30;1.17;;;20.40;78.60;;;;;;5061238;28;20231;-49
2023/03/24 03:00:25;;;;;;;1.73;1.05;;;20.40;78.60;;;;;;5065090;28;20230;-52
2023/03/24 03:02:58;;;;;;;1.33;1.02;;;20.40;78.60;;;;;;5051493;28;20199;-51
2023/03/24 03:05:30;;;;;;;1.25;1.13;;;20.40;78.60;;;;;;5059435;28;20199;-50
2023/03/24 03:08:00;;;;;;;1.30;1.20;;;20.40;78.60;;;;;;5056682;28;20251;-49
2023/03/24 03:10:31;;;;;;;1.63;1.00;;;20.40;78.60;;;;;;5058201;28;20202;-49
2023/03/24 03:13:01;;;;;;;1.38;1.05;;;20.40;78.60;;;;;;5051009;28;20198;-48
2023/03/24 03:15:32;;;;;;;1.00;0.90;;;20.40;78.60;;;;;;5049263;28;21537;-50
2023/03/24 03:18:06;;;;;;;1.80;1.00;;;20.40;78.70;;;;;;5047814;28;20213;-48
2023/03/24 03:20:41;;;;;;;1.15;0.88;;;20.40;78.70;;;;;;5060533;28;20191;-49
2023/03/24 03:23:13;;;;;;;1.60;0.95;;;20.40;78.70;;;;;;5048904;28;20694;-48
2023/03/24 03:25:49;;;;;;;1.30;1.00;;;20.30;78.60;;;;;;5050653;28;20199;-48
2023/03/24 03:28:19;;;;;;;1.30;0.80;;;20.30;78.60;;;;;;5046480;28;20277;-48
2023/03/24 03:30:50;;;;;;;1.23;0.93;;;20.30;78.60;;;;;;5047185;28;20237;-57
2023/03/24 03:33:23;;;;;;;1.30;1.13;;;20.30;78.50;;;;;;5047195;28;20559;-49
2023/03/24 03:35:55;;;;;;;1.25;0.80;;;20.30;79.30;;;;;;5050121;28;20214;-52
2023/03/24 03:38:28;;;;;;;1.70;1.10;;;20.30;78.60;;;;;;5050742;28;20859;-51
2023/03/24 03:40:59;;;;;;;1.05;0.85;;;20.30;78.70;;;;;;5065563;28;20199;-48
2023/03/24 03:43:27;;;;;;;2.05;1.00;;;20.30;78.70;;;;;;5065738;28;20203;-49
2023/03/24 03:45:55;;;;;;;1.60;1.20;;;20.30;78.70;;;;;;5064821;28;20207;-50
2023/03/24 03:48:25;;;;;;;0.90;0.70;;;20.30;78.70;;;;;;5063497;28;20206;-48
2023/03/24 03:50:52;;;;;;;1.45;0.90;;;20.30;78.70;;;;;;5060846;28;20198;-48
2023/03/24 03:53:23;;;;;;;1.63;1.23;;;20.30;78.80;;;;;;5064329;28;20460;-50
2023/03/24 03:55:51;;;;;;;1.00;0.80;;;20.30;78.80;;;;;;5065525;28;20207;-49
2023/03/24 03:58:19;;;;;;;1.73;1.33;;;20.30;78.70;;;;;;5057410;28;20283;-50
2023/03/24 04:00:46;;;;;;;1.05;0.80;;;20.30;78.70;;;;;;5062229;28;20199;-48
2023/03/24 04:03:33;;;;;;;1.30;1.10;;;20.20;78.60;;;;;;5056761;28;20199;-50
2023/03/24 04:06:03;;;;;;;1.13;0.77;;;20.20;78.60;;;;;;5068669;28;20206;-51
2023/03/24 04:08:40;;;;;;;1.40;0.80;;;20.20;78.70;;;;;;5057514;28;20206;-48
2023/03/24 04:11:35;;;;;;;1.20;0.88;;;20.20;78.70;;;;;;5063763;28;20551;-48
2023/03/24 04:14:23;;;;;;;1.42;0.90;;;20.20;79.50;;;;;;5055297;28;20658;-50
2023/03/24 04:16:58;;;;;;;0.98;0.80;;;20.20;78.70;;;;;;5057095;28;20196;-50
2023/03/24 04:19:36;;;;;;;1.10;0.82;;;20.20;78.70;;;;;;5060831;28;20206;-53
2023/03/24 04:22:22;;;;;;;1.45;0.90;;;20.20;78.70;;;;;;5054463;28;20253;-52
2023/03/24 04:24:54;;;;;;;1.70;1.17;;;20.20;78.80;;;;;;5052657;28;20257;-49
2023/03/24 04:27:27;;;;;;;1.20;1.00;;;20.20;78.70;;;;;;5051152;28;20443;-52
2023/03/24 04:30:05;;;;;;;1.85;1.00;;;20.20;78.80;;;;;;5051394;28;22028;-48
2023/03/24 04:32:40;;;;;;;2.30;1.10;;;20.20;78.80;;;;;;5050500;28;20191;-49
2023/03/24 04:35:11;;;;;;;1.48;1.00;;;20.20;78.80;;;;;;5050854;28;20301;-52
2023/03/24 04:37:39;;;;;;;1.20;0.98;;;20.10;79.40;;;;;;5050758;28;20195;-55
2023/03/24 04:40:10;;;;;;;1.10;0.90;;;20.10;78.70;;;;;;5049747;28;20202;-55
2023/03/24 04:42:41;;;;;;;1.00;0.80;;;20.10;78.70;;;;;;5056042;28;20219;-53
2023/03/24 04:45:11;;;;;;;1.88;1.10;;;20.10;78.70;;;;;;5055638;28;20209;-50
2023/03/24 04:47:43;;;;;;;1.30;0.93;;;20.10;78.70;;;;;;5061077;28;20187;-49
2023/03/24 04:50:12;;;;;;;1.65;0.95;;;20.10;78.70;;;;;;5055201;28;20204;-49
2023/03/24 04:52:39;;;;;;;1.05;0.90;;;20.10;78.70;;;;;;5053099;28;20203;-49
2023/03/24 04:55:32;;;;;;;1.10;0.90;;;20.10;78.70;;;;;;5063083;28;20225;-48
2023/03/24 04:57:58;;;;;;;1.48;0.80;;;20.10;78.70;;;;;;5063452;28;20697;-48
2023/03/24 05:00:27;;;;;;;1.35;1.00;;;20.10;78.70;;;;;;5060992;28;20206;-52
2023/03/24 05:02:54;;;;;;;1.15;1.05;;;20.10;78.80;;;;;;5063271;28;20234;-48
2023/03/24 05:05:21;;;;;;;2.38;1.10;;;20.10;78.80;;;;;;5059032;28;20203;-56
2023/03/24 05:07:48;;;;;;;1.58;1.10;;;20.10;78.70;;;;;;5052434;28;20194;-48
2023/03/24 05:10:15;;;;;;;1.45;1.15;;;20.10;78.80;;;;;;5049199;28;20219;-48
2023/03/24 05:12:42;;;;;;;1.80;1.10;;;20.10;78.70;;;;;;5050363;28;20270;-48
2023/03/24 05:15:09;;;;;;;1.00;0.73;;;20.10;78.80;;;;;;5049814;28;20226;-48
2023/03/24 05:17:37;;;;;;;1.35;0.88;;;20.10;78.70;;;;;;5050026;28;20207;-48
2023/03/24 05:20:09;;;;;;;1.08;0.77;;;20.10;78.80;;;;;;5050824;28;20203;-55
2023/03/24 05:22:36;;;;;;;1.17;0.98;;;20.10;78.80;;;;;;5046497;28;20220;-51
2023/03/24 05:25:03;;;;;;;1.85;0.90;;;20.10;78.80;;;;;;5052862;28;20597;-50
2023/03/24 05:27:30;;;;;;;1.05;0.73;;;20.10;78.80;;;;;;5050769;28;20730;-49
2023/03/24 05:29:56;;;;;;;3.10;0.90;;;20.10;78.80;;;;;;5050752;28;20674;-49
2023/03/24 05:32:23;;;;;;;2.05;1.02;;;20.00;78.70;;;;;;5056476;28;20885;-49
2023/03/24 05:34:51;;;;;;;1.10;0.77;;;20.00;78.70;;;;;;5047958;28;20344;-53
2023/03/24 05:37:18;;;;;;;1.55;0.90;;;20.00;78.70;;;;;;5052215;28;20195;-50
2023/03/24 05:39:45;;;;;;;1.20;0.90;;;20.00;78.70;;;;;;5049900;28;20214;-57
2023/03/24 05:42:11;;;;;;;1.10;0.77;;;20.00;78.70;;;;;;5049224;28;20213;-51
2023/03/24 05:44:38;;;;;;;1.10;0.90;;;20.00;78.70;;;;;;5051547;28;20226;-54
2023/03/24 05:47:05;;;;;;;1.00;0.80;;;20.00;78.70;;;;;;5048812;28;20221;-50
2023/03/24 05:49:32;;;;;;;1.33;0.80;;;20.00;78.70;;;;;;5051928;28;20201;-51
2023/03/24 05:52:00;;;;;;;1.35;0.80;;;20.00;78.70;;;;;;5051102;28;20634;-52
2023/03/24 05:54:26;;;;;;;1.10;0.88;;;20.00;78.70;;;;;;5049823;28;20200;-51
2023/03/24 05:56:53;;;;;;;0.90;0.73;;;20.00;78.80;;;;;;5052004;28;20895;-55
2023/03/24 05:59:21;;;;;;;1.17;0.93;;;20.00;78.70;;;;;;5052469;28;20195;-54
2023/03/24 06:01:48;;;;;;;1.58;0.90;;;20.00;78.70;;;;;;5050762;28;20678;-51
2023/03/24 06:04:14;;;;;;;1.00;0.70;;;20.00;78.80;;;;;;5051048;28;20203;-51
2023/03/24 06:06:44;;;;;;;1.30;0.80;;;20.00;78.70;;;;;;5050027;28;22185;-50
2023/03/24 06:09:13;;;;;;;1.00;0.80;;;20.00;78.70;;;;;;5047765;28;20199;-48
2023/03/24 06:11:40;;;;;;;1.00;0.80;;;20.00;78.70;;;;;;5048006;28;20263;-53
2023/03/24 06:14:07;;;;;;;1.20;0.98;;;19.90;78.60;;;;;;5054491;28;20230;-50
2023/03/24 06:16:38;;;;;;;1.50;1.10;;;20.00;78.70;;;;;;5048643;28;20272;-52
2023/03/24 06:19:05;;;;;;;1.10;0.90;;;19.90;78.50;;;;;;5048862;28;20244;-48
2023/03/24 06:21:32;;;;;;;1.65;0.95;;;20.00;78.50;;;;;;5049670;28;20243;-52
2023/03/24 06:23:59;;;;;;;1.10;0.90;;;20.00;78.40;;;;;;5048889;28;20202;-53
2023/03/24 06:26:29;;;;;;;1.40;0.80;;;20.00;78.30;;;;;;5046005;28;20195;-52
2023/03/24 06:28:57;;;;;;;0.95;0.80;;;20.00;78.30;;;;;;5046069;28;20199;-52
2023/03/24 06:31:26;;;;;;;1.15;0.80;;;20.10;78.40;;;;;;5046880;28;20246;-51
2023/03/24 06:33:53;;;;;;;2.38;1.13;;;20.10;78.30;;;;;;5057838;28;20191;-53
2023/03/24 06:36:22;;;;;;;1.70;1.02;;;20.10;78.30;;;;;;5053729;28;20226;-52
2023/03/24 06:38:49;;;;;;;1.00;0.70;;;20.10;78.30;;;;;;5047870;28;20210;-51
2023/03/24 06:41:15;;;;;;;1.20;1.00;;;20.10;78.30;;;;;;5048657;28;20285;-53
2023/03/24 06:43:43;;;;;;;1.10;0.90;;;20.10;78.30;;;;;;5053887;28;20682;-53
2023/03/24 06:46:10;;;;;;;1.25;0.88;;;20.10;78.30;;;;;;5053014;28;20198;-52
2023/03/24 06:48:37;;;;;;;1.33;1.00;;;20.10;78.30;;;;;;5046188;28;20225;-55
2023/03/24 06:51:05;;;;;;;1.30;0.80;;;20.10;78.30;;;;;;5045607;28;20293;-51
2023/03/24 06:53:32;;;;;;;1.27;0.90;;;20.10;78.30;;;;;;5051050;28;20206;-49
2023/03/24 06:55:58;;;;;;;1.85;0.85;;;20.10;78.30;;;;;;5046234;28;20230;-51
2023/03/24 06:58:25;;;;;;;1.00;0.82;;;20.10;78.20;;;;;;5050830;28;20250;-54
2023/03/24 07:00:54;;;;;;;1.05;0.90;;;20.20;78.20;;;;;;5051248;28;20207;-51
2023/03/24 07:03:22;;;;;;;1.65;1.35;;;20.20;78.10;;;;;;5050858;28;20199;-52
2023/03/24 07:05:49;;;;;;;1.20;1.00;;;20.20;78.10;;;;;;5047831;28;20607;-51
2023/03/24 07:08:16;;;;;;;1.50;1.00;;;20.30;78.10;;;;;;5051631;28;20196;-54
2023/03/24 07:10:43;;;;;;;1.10;0.90;;;20.30;78.00;;;;;;5052612;28;20195;-48
2023/03/24 07:13:10;;;;;;;1.48;1.15;;;20.30;78.00;;;;;;5051899;28;20195;-55
2023/03/24 07:15:37;;;;;;;1.23;0.80;;;20.40;78.00;;;;;;5051072;28;20214;-49
2023/03/24 07:18:05;;;;;;;1.10;0.95;;;20.40;77.90;;;;;;5053222;28;20759;-50
2023/03/24 07:20:32;;;;;;;1.20;0.80;;;20.40;77.80;;;;;;5051885;28;20211;-54
2023/03/24 07:22:58;;;;;;;1.33;0.80;;;20.40;77.80;;;;;;5050985;28;20219;-58
2023/03/24 07:25:26;;;;;;;1.40;0.70;;;20.40;77.70;;;;;;5051007;28;20571;-51
2023/03/24 07:27:53;;;;;;;1.00;0.80;;;20.40;77.80;;;;;;5051931;28;20203;-52
2023/03/24 07:30:20;;;;;;;2.33;0.80;;;20.50;77.80;;;;;;5052369;28;20536;-54
2023/03/24 07:32:48;;;;;;;1.38;0.80;;;20.50;77.80;;;;;;5053560;28;20219;-51
2023/03/24 07:35:17;;;;;;;0.90;0.77;;;20.50;77.80;;;;;;5052788;28;20416;-48
2023/03/24 07:37:44;;;;;;;0.98;0.80;;;20.50;77.90;;;;;;5054241;28;20245;-48
2023/03/24 07:40:13;;;;;;;1.58;0.80;;;20.50;77.80;;;;;;5054367;28;20230;-49
2023/03/24 07:42:41;;;;;;;1.10;0.80;;;20.50;77.80;;;;;;5058795;28;20935;-48
2023/03/24 07:45:09;;;;;;;1.50;1.17;;;20.50;77.80;;;;;;5058577;28;20449;-53
2023/03/24 07:47:37;;;;;;;1.05;0.80;;;20.50;77.80;;;;;;5048979;28;20194;-56
2023/03/24 07:50:08;;;;;;;1.10;0.70;;;20.50;77.80;;;;;;5047909;28;20195;-54
2023/03/24 07:52:37;;;;;;;1.13;1.00;;;20.50;77.70;;;;;;5051705;28;20462;-53
2023/03/24 07:55:09;;;;;;;1.20;0.80;;;20.60;77.90;;;;;;5052641;28;20194;-51
2023/03/24 07:57:36;;;;;;;1.10;0.80;;;20.60;77.80;;;;;;5047717;28;21504;-52
2023/03/24 08:00:13;;;;;;;1.00;0.88;;;20.60;77.80;;;;;;5052827;28;20511;-51
2023/03/24 08:02:40;;;;;;;1.20;0.80;;;20.60;77.70;;;;;;5048092;28;20202;-52
2023/03/24 08:05:09;;;;;;;1.77;1.00;;;20.60;77.70;;;;;;5052244;28;20651;-51
2023/03/24 08:07:37;;;;;;;1.30;1.00;;;20.60;77.60;;;;;;5050746;28;20457;-51
2023/03/24 08:10:04;;;;;;;2.50;0.90;;;20.70;77.80;;;;;;5047547;28;20453;-56
2023/03/24 08:12:31;;;;;;;2.05;1.00;;;20.70;77.80;;;;;;5051594;28;20468;-55
2023/03/24 08:14:57;;;;;;;4.23;1.20;;;20.70;77.90;;;;;;5052735;28;20206;-50
2023/03/24 08:17:24;;;;;;;1.35;0.98;;;20.70;77.90;;;;;;5051920;28;20484;-48
2023/03/24 08:19:51;;;;;;;4.33;1.20;;;20.60;77.70;;;;;;5045844;28;20205;-53
2023/03/24 08:22:18;;;;;;;1.40;0.90;;;20.70;78.20;;;;;;5053709;28;20482;-52
2023/03/24 08:24:46;;;;;;;6.15;0.98;;;20.70;78.00;;;;;;5048292;28;20199;-50
2023/03/24 08:27:13;;;;;;;1.30;0.87;;;20.70;77.80;;;;;;5049855;28;20237;-61
2023/03/24 08:29:39;;;;;;;1.47;0.90;;;20.80;77.80;;;;;;5051310;28;20466;-56
2023/03/24 08:32:06;;;;;;;2.03;1.00;;;20.80;77.90;;;;;;5051112;28;20461;-54
2023/03/24 08:34:33;;;;;;;1.00;0.77;;;20.80;78.00;;;;;;5057708;28;20458;-61
2023/03/24 08:37:00;;;;;;;1.00;0.80;;;20.80;77.90;;;;;;5048023;28;20473;-56
2023/03/24 08:39:26;;;;;;;1.20;1.10;;;20.80;78.10;;;;;;5052613;28;20522;-56
2023/03/24 08:41:54;;;;;;;4.13;1.10;;;20.80;78.00;;;;;;5060592;28;20209;-59
2023/03/24 08:44:21;;;;;;;4.30;1.00;;;20.80;78.10;;;;;;5060099;28;20577;-59
2023/03/24 08:46:48;;;;;;;2.03;1.30;;;20.80;78.10;;;;;;5049041;28;20493;-57
2023/03/24 08:49:15;;;;;;;1.98;1.25;;;20.80;78.00;;;;;;5051030;28;20468;-55
2023/03/24 08:51:41;;;;;;;1.20;0.85;;;20.80;78.10;;;;;;5052341;28;20191;-58
2023/03/24 08:54:11;;;;;;;1.70;0.90;;;20.80;78.10;;;;;;5050213;28;20199;-56
2023/03/24 08:56:38;;;;;;;1.30;0.80;;;20.80;78.00;;;;;;5061323;28;20568;-56
2023/03/24 08:59:06;;;;;;;1.40;1.00;;;20.80;78.00;;;;;;5053419;28;20566;-56
2023/03/24 09:01:34;;;;;;;1.20;0.73;;;20.90;78.10;;;;;;5067909;28;20461;-55
2023/03/24 09:04:01;;;;;;;1.10;0.90;;;20.90;78.00;;;;;;5057245;28;20870;-54
2023/03/24 09:06:28;;;;;;;3.93;0.90;;;20.90;78.10;;;;;;5050088;28;20471;-58
2023/03/24 09:08:54;;;;;;;1.30;0.90;;;20.80;77.90;;;;;;5049949;28;20473;-56
2023/03/24 09:11:22;;;;;;;1.50;0.80;;;20.90;78.10;;;;;;5052710;28;21150;-57
2023/03/24 09:13:49;;;;;;;1.30;0.90;;;20.90;78.00;;;;;;5050420;28;20458;-54
2023/03/24 09:16:18;;;;;;;0.90;0.80;;;20.90;78.00;;;;;;5052788;28;20484;-54
2023/03/24 09:18:46;;;;;;;1.30;0.70;;;20.90;77.90;;;;;;5052703;28;20465;-56
2023/03/24 09:21:13;;;;;;;1.20;1.10;;;20.90;77.90;;;;;;5048784;28;20857;-56
2023/03/24 09:23:39;;;;;;;1.10;0.80;;;20.90;77.90;;;;;;5051095;28;20461;-56
2023/03/24 09:26:06;;;;;;;1.60;1.00;;;20.90;77.90;;;;;;5051202;28;20465;-58
2023/03/24 09:28:34;;;;;;;1.30;1.07;;;20.90;77.90;;;;;;5051627;28;20864;-56
2023/03/24 09:31:03;;;;;;;1.00;0.80;;;20.90;77.90;;;;;;5053187;28;20799;-57
2023/03/24 09:33:33;;;;;;;1.50;0.80;;;20.90;77.90;;;;;;5051578;28;20454;-55
2023/03/24 09:36:02;;;;;;;1.57;0.80;;;20.90;77.80;;;;;;5052141;28;20466;-56
2023/03/24 09:38:29;;;;;;;1.37;0.90;;;20.90;77.80;;;;;;5050630;28;20467;-54
2023/03/24 09:40:59;;;;;;;1.20;0.90;;;20.90;77.80;;;;;;5049750;28;20477;-54
2023/03/24 09:43:36;;;;;;;0.90;0.80;;;20.90;77.80;;;;;;5052627;28;20461;-55
2023/03/24 09:46:07;;;;;;;1.47;0.83;;;20.90;77.80;;;;;;5048964;28;20457;-53
2023/03/24 09:48:40;;;;;;;1.00;0.80;;;20.90;77.80;;;;;;5055504;28;20452;-60
2023/03/24 09:51:10;;;;;;;1.63;1.00;;;20.90;77.80;;;;;;5060444;28;21772;-54
2023/03/24 09:53:43;;;;;;;1.83;0.90;;;20.90;77.80;;;;;;5061676;28;20450;-59
2023/03/24 09:56:14;;;;;;;1.30;0.90;;;20.90;77.80;;;;;;5069254;28;20797;-62
2023/03/24 09:58:42;;;;;;;1.83;0.60;;;21.00;77.90;;;;;;5075230;28;20465;-61
2023/03/24 10:01:13;;;;;;;1.50;1.00;;;21.00;77.90;;;;;;5066116;28;20964;-62
2023/03/24 10:03:42;;;;;;;1.10;0.70;;;21.00;78.10;;;;;;5064652;28;21049;-61
2023/03/24 10:06:13;;;;;;;1.20;0.90;;;21.00;78.90;;;;;;5063393;28;20507;-60
2023/03/24 10:08:43;;;;;;;1.20;1.10;;;21.10;78.30;;;;;;5073953;28;20468;-64
2023/03/24 10:11:19;;;;;;;1.00;0.90;;;21.10;78.40;;;;;;5064082;28;20464;-59
2023/03/24 10:13:56;;;;;;;3.07;0.80;;;21.10;78.50;;;;;;5070441;28;20551;-63
2023/03/24 10:16:30;;;;;;;0.97;0.80;;;21.10;79.40;;;;;;5067383;28;20480;-59
2023/03/24 10:19:03;;;;;;;1.63;1.23;;;21.10;78.70;;;;;;5062956;28;20465;-59
2023/03/24 10:21:34;;;;;;;1.20;0.80;;;21.10;78.70;;;;;;5056612;28;20482;-56
2023/03/24 10:24:06;;;;;;;1.20;1.00;;;21.20;78.90;;;;;;5065661;28;20878;-58
2023/03/24 10:26:40;;;;;;;1.20;0.80;;;21.20;79.00;;;;;;5061777;28;20458;-55
2023/03/24 10:29:21;;;;;;;1.87;0.90;;;21.20;79.30;;;;;;5066600;28;20460;-59
2023/03/24 10:31:51;;;;;;;2.27;0.90;;;21.20;79.30;;;;;;5064015;28;20461;-61
2023/03/24 10:34:21;;;;;;;1.63;0.93;;;21.20;79.50;;;;;;5068087;28;20453;-53
2023/03/24 10:36:48;;;;;;;1.07;0.80;;;21.20;79.60;;;;;;5064044;28;20485;-58
2023/03/24 10:39:16;;;;;;;1.50;1.03;;;21.20;79.70;;;;;;5063625;28;20459;-62
2023/03/24 10:41:44;;;;;;;1.90;0.87;;;21.20;79.70;;;;;;5063371;28;20484;-59
2023/03/24 10:44:12;;;;;;;2.07;0.93;;;21.20;79.70;;;;;;5063647;28;20469;-59
2023/03/24 10:46:46;;;;;;;1.37;0.80;;;21.20;79.70;;;;;;5065705;28;20488;-57
2023/03/24 10:49:16;;;;;;;1.33;1.00;;;21.20;79.70;;;;;;5076366;28;20484;-60
2023/03/24 10:51:48;;;;;;;4.63;0.87;;;21.20;79.60;;;;;;5055584;28;20507;-54
2023/03/24 10:54:18;;;;;;;2.40;1.17;;;21.30;79.70;;;;;;5072026;28;20509;-57
2023/03/24 10:56:46;;;;;;;1.53;1.00;;;21.30;79.70;;;;;;5073783;28;20837;-55
2023/03/24 10:59:26;;;;;;;1.40;1.00;;;21.30;79.90;;;;;;5072268;28;20822;-51
2023/03/24 11:01:59;;;;;;;1.37;1.27;;;21.30;79.80;;;;;;5065206;28;20491;-53
2023/03/24 11:04:27;;;;;;;2.50;1.00;;;21.30;80.00;;;;;;5066019;28;20496;-56
2023/03/24 11:07:04;;;;;;;1.33;0.80;;;21.30;80.00;;;;;;5058788;28;20470;-60
2023/03/24 11:09:41;;;;;;;1.90;1.00;;;21.30;79.80;;;;;;5068777;28;20453;-59
2023/03/24 11:12:21;;;;;;;2.20;1.00;;;21.30;79.80;;;;;;5061916;28;20444;-55
2023/03/24 11:14:47;;;;;;;1.63;0.93;;;21.30;79.80;;;;;;5071769;28;20456;-60
2023/03/24 11:17:15;;;;;;;9.93;1.83;;;21.40;79.90;;;;;;5072060;28;20542;-62
2023/03/24 11:19:52;;;;;;;1.90;1.00;;;21.40;79.90;;;;;;5061596;28;20465;-61
2023/03/24 11:22:20;;;;;;;1.07;0.73;;;21.40;80.00;;;;;;5069178;28;20496;-61
2023/03/24 11:24:50;;;;;;;1.80;0.80;;;21.40;80.00;;;;;;5067591;28;21241;-62
2023/03/24 11:27:17;;;;;;;2.97;0.80;;;21.40;80.00;;;;;;5064081;28;20988;-58
2023/03/24 11:29:50;;;;;;;2.03;0.80;;;21.40;80.00;;;;;;5065765;28;20461;-57
2023/03/24 11:32:23;;;;;;;1.10;0.77;;;21.40;79.90;;;;;;5063763;28;20484;-56
2023/03/24 11:34:55;;;;;;;3.13;1.10;;;21.40;80.00;;;;;;5063266;28;21003;-58
2023/03/24 11:37:27;;;;;;;2.50;0.90;;;21.30;79.90;;;;;;5069470;28;20471;-57
2023/03/24 11:40:20;;;;;;;2.27;0.90;;;21.40;80.80;;;;;;5070671;28;20464;-64
2023/03/24 11:42:50;;;;;;;1.43;1.00;;;21.40;80.00;;;;;;5071296;28;21155;-59
2023/03/24 11:45:23;;;;;;;1.27;0.90;;;21.40;80.00;;;;;;5072869;28;20456;-57
2023/03/24 11:47:52;;;;;;;1.70;1.20;;;21.40;80.00;;;;;;5067697;28;20515;-57
2023/03/24 11:50:22;;;;;;;1.97;0.87;;;21.40;80.00;;;;;;5062524;28;21005;-52
2023/03/24 11:52:54;;;;;;;3.60;1.03;;;21.50;80.10;;;;;;5077323;28;20459;-58
2023/03/24 11:55:28;;;;;;;2.40;1.03;;;21.50;80.10;;;;;;5064344;28;20460;-55
2023/03/24 11:57:58;;;;;;;0.90;0.73;;;21.50;80.10;;;;;;5071190;28;20538;-55
2023/03/24 12:00:29;;;;;;;1.53;0.80;;;21.50;80.10;;;;;;5075277;28;20463;-51
2023/03/24 12:03:23;;;;;;;1.50;0.90;;;21.50;80.10;;;;;;5067717;28;20460;-55
2023/03/24 12:05:56;;;;;;;2.20;0.80;;;21.50;80.30;;;;;;5063293;28;20466;-54
2023/03/24 12:08:38;;;;;;;1.30;0.90;;;21.60;80.30;;;;;;5070388;28;20448;-52
2023/03/24 12:11:16;;;;;;;1.00;0.90;;;21.60;80.30;;;;;;5061656;28;20531;-48
2023/03/24 12:13:47;;;;;;;1.40;0.90;;;21.60;80.40;;;;;;5071756;28;20470;-48
2023/03/24 12:16:28;;;;;;;2.03;0.90;;;21.60;80.40;;;;;;5064995;28;20929;-57
2023/03/24 12:19:32;;;;;;;1.00;0.73;;;21.60;80.50;;;;;;5071811;28;20576;-51
2023/03/24 12:22:08;;;;;;;1.50;1.00;;;21.60;80.50;;;;;;5028303;28;20480;-53
2023/03/24 12:24:55;;;;;;;1.23;0.90;;;21.60;80.70;;;;;;5070964;28;20456;-56
2023/03/24 12:27:33;;;;;;;1.40;1.10;;;21.60;80.60;;;;;;5075187;28;20484;-53
2023/03/24 12:30:04;;;;;;;1.90;0.90;;;21.60;80.70;;;;;;5060774;28;20665;-52
2023/03/24 12:32:51;;;;;;;1.73;1.13;;;21.60;80.70;;;;;;5061130;28;20535;-59
2023/03/24 12:35:44;;;;;;;4.90;1.43;;;21.60;80.90;;;;;;5061677;28;20452;-54
2023/03/24 12:38:29;;;;;;;2.73;1.10;;;21.60;80.90;;;;;;5063805;28;20477;-49
2023/03/24 12:41:13;;;;;;;1.10;0.80;;;21.60;80.90;;;;;;5072082;28;20465;-51
2023/03/24 12:43:50;;;;;;;1.70;1.17;;;21.60;80.70;;;;;;5063401;28;20963;-52
2023/03/24 12:46:30;;;;;;;1.60;0.90;;;21.60;80.70;;;;;;5061413;28;20638;-60
2023/03/24 12:49:20;;;;;;;3.33;1.10;;;21.60;80.70;;;;;;5064692;28;20828;-52
2023/03/24 12:51:55;;;;;;;1.33;0.83;;;21.60;80.70;;;;;;5065747;28;20465;-51
2023/03/24 12:54:32;;;;;;;5.33;0.90;;;21.60;80.70;;;;;;5064179;28;20449;-52
2023/03/24 12:57:05;;;;;;;1.70;0.97;;;21.60;80.70;;;;;;5068862;28;20469;-52
2023/03/24 12:59:37;;;;;;;1.43;0.93;;;21.60;80.60;;;;;;5067883;28;20957;-51
2023/03/24 13:02:16;;;;;;;1.53;0.80;;;21.60;80.70;;;;;;5061959;28;20825;-52
2023/03/24 13:04:46;;;;;;;1.83;0.90;;;21.60;80.70;;;;;;5066125;28;20904;-52
2023/03/24 13:07:18;;;;;;;49.50;8.47;;;21.60;80.70;;;;;;5059512;28;20467;-55
2023/03/24 13:09:52;;;;;;;20.80;2.57;;;21.70;80.90;;;;;;5066413;28;20997;-53